sensor_id;sensor_type;location;lat;lon;timestamp;pressure;altitude;pressure_sealevel;temperature;humidity
72038;BME280;59900;50.788;12.904;2023-06-19T00:01:18;97316.91;;;20.29;57.37
72038;BME280;59900;50.788;12.904;2023-06-19T00:03:43;97324.38;;;20.32;57.25
72038;BME280;59900;50.788;12.904;2023-06-19T00:06:09;97323.34;;;20.38;56.18
72038;BME280;59900;50.788;12.904;2023-06-19T00:08:34;97315.63;;;20.42;57.20
72038;BME280;59900;50.788;12.904;2023-06-19T00:11:01;97306.56;;;20.48;56.21
72038;BME280;59900;50.788;12.904;2023-06-19T00:13:26;97306.56;;;20.53;56.37
72038;BME280;59900;50.788;12.904;2023-06-19T00:15:51;97302.03;;;20.58;56.98
72038;BME280;59900;50.788;12.904;2023-06-19T00:18:17;97302.03;;;20.58;57.32
72038;BME280;59900;50.788;12.904;2023-06-19T00:20:44;97305.50;;;20.59;56.39
72038;BME280;59900;50.788;12.904;2023-06-19T00:23:11;97302.28;;;20.62;59.32
72038;BME280;59900;50.788;12.904;2023-06-19T00:25:39;97299.09;;;20.60;56.18
72038;BME280;59900;50.788;12.904;2023-06-19T00:28:05;97296.44;;;20.60;57.13
72038;BME280;59900;50.788;12.904;2023-06-19T00:30:36;97299.91;;;20.60;59.38
72038;BME280;59900;50.788;12.904;2023-06-19T00:33:01;97293.75;;;20.60;58.30
72038;BME280;59900;50.788;12.904;2023-06-19T00:35:28;97295.09;;;20.57;58.54
72038;BME280;59900;50.788;12.904;2023-06-19T00:37:53;97292.41;;;20.52;59.87
72038;BME280;59900;50.788;12.904;2023-06-19T00:40:27;97292.16;;;20.49;60.70
72038;BME280;59900;50.788;12.904;2023-06-19T00:42:53;97287.06;;;20.47;58.37
72038;BME280;59900;50.788;12.904;2023-06-19T00:45:18;97288.13;;;20.46;58.91
72038;BME280;59900;50.788;12.904;2023-06-19T00:47:43;97288.38;;;20.40;59.34
72038;BME280;59900;50.788;12.904;2023-06-19T00:50:10;97298.25;;;20.39;59.51
72038;BME280;59900;50.788;12.904;2023-06-19T00:52:35;97290.50;;;20.38;58.63
72038;BME280;59900;50.788;12.904;2023-06-19T00:55:01;97279.81;;;20.33;60.45
72038;BME280;59900;50.788;12.904;2023-06-19T00:57:27;97279.03;;;20.32;59.06
72038;BME280;59900;50.788;12.904;2023-06-19T00:59:53;97277.97;;;20.33;60.10
72038;BME280;59900;50.788;12.904;2023-06-19T01:02:19;97274.50;;;20.28;60.84
72038;BME280;59900;50.788;12.904;2023-06-19T01:04:49;97278.97;;;20.22;61.09
72038;BME280;59900;50.788;12.904;2023-06-19T01:07:16;97277.38;;;20.16;61.34
72038;BME280;59900;50.788;12.904;2023-06-19T01:09:51;97276.56;;;20.10;61.32
72038;BME280;59900;50.788;12.904;2023-06-19T01:12:20;97271.19;;;20.05;62.22
72038;BME280;59900;50.788;12.904;2023-06-19T01:14:54;97279.16;;;20.00;62.10
72038;BME280;59900;50.788;12.904;2023-06-19T01:17:22;97278.66;;;20.03;60.32
72038;BME280;59900;50.788;12.904;2023-06-19T01:19:48;97270.13;;;20.01;59.87
72038;BME280;59900;50.788;12.904;2023-06-19T01:22:25;97266.94;;;20.04;60.49
72038;BME280;59900;50.788;12.904;2023-06-19T01:24:51;97263.16;;;20.00;61.89
72038;BME280;59900;50.788;12.904;2023-06-19T01:27:16;97255.44;;;19.99;62.25
72038;BME280;59900;50.788;12.904;2023-06-19T01:29:41;97257.56;;;19.97;61.92
72038;BME280;59900;50.788;12.904;2023-06-19T01:32:10;97258.06;;;19.94;61.94
72038;BME280;59900;50.788;12.904;2023-06-19T01:34:38;97252.44;;;19.90;62.59
72038;BME280;59900;50.788;12.904;2023-06-19T01:37:04;97248.44;;;19.88;61.72
72038;BME280;59900;50.788;12.904;2023-06-19T01:39:32;97254.31;;;19.85;62.06
72038;BME280;59900;50.788;12.904;2023-06-19T01:41:58;97246.88;;;19.87;62.01
72038;BME280;59900;50.788;12.904;2023-06-19T01:44:24;97248.44;;;19.88;62.13
72038;BME280;59900;50.788;12.904;2023-06-19T01:46:50;97241.78;;;19.90;59.48
72038;BME280;59900;50.788;12.904;2023-06-19T01:49:16;97242.88;;;19.94;60.75
72038;BME280;59900;50.788;12.904;2023-06-19T01:51:41;97238.06;;;19.96;59.97
72038;BME280;59900;50.788;12.904;2023-06-19T01:54:07;97242.34;;;19.97;60.47
72038;BME280;59900;50.788;12.904;2023-06-19T01:56:32;97246.13;;;20.01;61.52
72038;BME280;59900;50.788;12.904;2023-06-19T01:58:58;97237.84;;;20.03;59.86
72038;BME280;59900;50.788;12.904;2023-06-19T02:01:23;97236.25;;;20.07;57.94
72038;BME280;59900;50.788;12.904;2023-06-19T02:03:48;97234.63;;;20.11;59.65
72038;BME280;59900;50.788;12.904;2023-06-19T02:06:13;97239.72;;;20.18;60.20
72038;BME280;59900;50.788;12.904;2023-06-19T02:08:39;97232.25;;;20.14;59.49
72038;BME280;59900;50.788;12.904;2023-06-19T02:11:04;97240.25;;;20.20;59.86
72038;BME280;59900;50.788;12.904;2023-06-19T02:13:29;97232.53;;;20.23;59.16
72038;BME280;59900;50.788;12.904;2023-06-19T02:15:57;97218.94;;;20.25;58.78
72038;BME280;59900;50.788;12.904;2023-06-19T02:18:22;97226.44;;;20.28;59.17
72038;BME280;59900;50.788;12.904;2023-06-19T02:20:47;97217.34;;;20.29;57.51
72038;BME280;59900;50.788;12.904;2023-06-19T02:23:13;97212.81;;;20.29;57.70
72038;BME280;59900;50.788;12.904;2023-06-19T02:25:39;97225.41;;;20.34;58.62
72038;BME280;59900;50.788;12.904;2023-06-19T02:28:04;97220.31;;;20.32;57.85
72038;BME280;59900;50.788;12.904;2023-06-19T02:30:29;97225.13;;;20.35;56.63
72038;BME280;59900;50.788;12.904;2023-06-19T02:32:55;97210.44;;;20.38;58.00
72038;BME280;59900;50.788;12.904;2023-06-19T02:35:20;97219.00;;;20.40;56.55
72038;BME280;59900;50.788;12.904;2023-06-19T02:37:45;97220.03;;;20.44;57.02
72038;BME280;59900;50.788;12.904;2023-06-19T02:40:12;97221.13;;;20.48;57.58
72038;BME280;59900;50.788;12.904;2023-06-19T02:42:37;97217.94;;;20.46;56.50
72038;BME280;59900;50.788;12.904;2023-06-19T02:45:03;97212.84;;;20.44;57.11
72038;BME280;59900;50.788;12.904;2023-06-19T02:47:29;97215.25;;;20.46;57.53
72038;BME280;59900;50.788;12.904;2023-06-19T02:50:00;97212.56;;;20.41;56.21
72038;BME280;59900;50.788;12.904;2023-06-19T02:52:26;97214.44;;;20.40;56.78
72038;BME280;59900;50.788;12.904;2023-06-19T02:54:51;97214.72;;;20.44;56.37
72038;BME280;59900;50.788;12.904;2023-06-19T02:57:16;97209.94;;;20.46;57.05
72038;BME280;59900;50.788;12.904;2023-06-19T02:59:41;97216.31;;;20.45;55.34
72038;BME280;59900;50.788;12.904;2023-06-19T03:02:07;97214.19;;;20.47;56.16
72038;BME280;59900;50.788;12.904;2023-06-19T03:04:32;97210.97;;;20.50;54.89
72038;BME280;59900;50.788;12.904;2023-06-19T03:06:57;97221.66;;;20.50;56.26
72038;BME280;59900;50.788;12.904;2023-06-19T03:09:22;97212.59;;;20.51;55.98
72038;BME280;59900;50.788;12.904;2023-06-19T03:11:48;97213.38;;;20.56;55.93
72038;BME280;59900;50.788;12.904;2023-06-19T03:14:13;97217.91;;;20.56;55.80
72038;BME280;59900;50.788;12.904;2023-06-19T03:16:38;97216.59;;;20.58;56.47
72038;BME280;59900;50.788;12.904;2023-06-19T03:19:03;97213.09;;;20.58;56.33
72038;BME280;59900;50.788;12.904;2023-06-19T03:21:29;97211.81;;;20.60;56.74
72038;BME280;59900;50.788;12.904;2023-06-19T03:23:54;97211.81;;;20.60;56.94
72038;BME280;59900;50.788;12.904;2023-06-19T03:26:20;97208.56;;;20.58;54.81
72038;BME280;59900;50.788;12.904;2023-06-19T03:28:45;97209.38;;;20.59;55.37
72038;BME280;59900;50.788;12.904;2023-06-19T03:31:12;97220.03;;;20.64;55.33
72038;BME280;59900;50.788;12.904;2023-06-19T03:33:38;97215.50;;;20.64;54.17
72038;BME280;59900;50.788;12.904;2023-06-19T03:36:03;97214.47;;;20.65;54.32
72038;BME280;59900;50.788;12.904;2023-06-19T03:38:28;97218.19;;;20.69;53.60
72038;BME280;59900;50.788;12.904;2023-06-19T03:40:54;97217.09;;;20.76;54.64
72038;BME280;59900;50.788;12.904;2023-06-19T03:43:19;97221.13;;;20.78;54.82
72038;BME280;59900;50.788;12.904;2023-06-19T03:45:44;97226.72;;;20.82;53.78
72038;BME280;59900;50.788;12.904;2023-06-19T03:48:09;97224.59;;;20.84;54.37
72038;BME280;59900;50.788;12.904;2023-06-19T03:50:35;97227.25;;;20.89;53.10
72038;BME280;59900;50.788;12.904;2023-06-19T03:53:00;97229.66;;;20.90;53.96
72038;BME280;59900;50.788;12.904;2023-06-19T03:55:25;97225.91;;;20.91;53.14
72038;BME280;59900;50.788;12.904;2023-06-19T03:57:51;97234.72;;;20.92;52.31
72038;BME280;59900;50.788;12.904;2023-06-19T04:00:17;97225.91;;;20.96;51.90
72038;BME280;59900;50.788;12.904;2023-06-19T04:02:43;97223.78;;;20.98;51.79
72038;BME280;59900;50.788;12.904;2023-06-19T04:05:11;97225.63;;;21.03;52.29
72038;BME280;59900;50.788;12.904;2023-06-19T04:07:36;97231.78;;;21.08;51.26
72038;BME280;59900;50.788;12.904;2023-06-19T04:10:01;97225.09;;;21.11;51.82
72038;BME280;59900;50.788;12.904;2023-06-19T04:12:27;97219.50;;;21.12;51.05
72038;BME280;59900;50.788;12.904;2023-06-19T04:14:52;97224.31;;;21.15;52.86
72038;BME280;59900;50.788;12.904;2023-06-19T04:17:17;97234.19;;;21.20;52.02
72038;BME280;59900;50.788;12.904;2023-06-19T04:19:43;97230.97;;;21.18;52.18
72038;BME280;59900;50.788;12.904;2023-06-19T04:22:08;97233.38;;;21.19;51.38
72038;BME280;59900;50.788;12.904;2023-06-19T04:24:34;97230.19;;;21.17;51.59
72038;BME280;59900;50.788;12.904;2023-06-19T04:27:00;97238.72;;;21.19;51.99
72038;BME280;59900;50.788;12.904;2023-06-19T04:29:25;97237.91;;;21.24;51.21
72038;BME280;59900;50.788;12.904;2023-06-19T04:31:50;97247.78;;;21.29;52.45
72038;BME280;59900;50.788;12.904;2023-06-19T04:34:16;97239.00;;;21.28;53.01
72038;BME280;59900;50.788;12.904;2023-06-19T04:36:42;97249.13;;;21.26;52.16
72038;BME280;59900;50.788;12.904;2023-06-19T04:39:07;97253.94;;;21.29;50.74
72038;BME280;59900;50.788;12.904;2023-06-19T04:41:33;97250.72;;;21.32;50.99
72038;BME280;59900;50.788;12.904;2023-06-19T04:43:58;97259.25;;;21.34;52.30
72038;BME280;59900;50.788;12.904;2023-06-19T04:46:23;97260.34;;;21.33;51.56
72038;BME280;59900;50.788;12.904;2023-06-19T04:48:48;97267.53;;;21.38;52.42
72038;BME280;59900;50.788;12.904;2023-06-19T04:51:17;97269.94;;;21.44;50.99
72038;BME280;59900;50.788;12.904;2023-06-19T04:53:46;97265.94;;;21.47;51.74
72038;BME280;59900;50.788;12.904;2023-06-19T04:56:11;97259.78;;;21.51;51.82
72038;BME280;59900;50.788;12.904;2023-06-19T04:58:37;97260.31;;;21.53;52.17
72038;BME280;59900;50.788;12.904;2023-06-19T05:01:09;97267.50;;;21.58;51.73
72038;BME280;59900;50.788;12.904;2023-06-19T05:03:35;97258.66;;;21.62;51.56
72038;BME280;59900;50.788;12.904;2023-06-19T05:06:00;97262.13;;;21.68;51.51
72038;BME280;59900;50.788;12.904;2023-06-19T05:08:25;97267.44;;;21.73;50.74
72038;BME280;59900;50.788;12.904;2023-06-19T05:10:51;97263.97;;;21.77;50.82
72038;BME280;59900;50.788;12.904;2023-06-19T05:13:16;97274.13;;;21.81;51.27
72038;BME280;59900;50.788;12.904;2023-06-19T05:15:43;97280.50;;;21.85;51.16
72038;BME280;59900;50.788;12.904;2023-06-19T05:18:08;97276.75;;;21.86;50.55
72038;BME280;59900;50.788;12.904;2023-06-19T05:20:33;97280.00;;;21.88;51.61
72038;BME280;59900;50.788;12.904;2023-06-19T05:22:59;97278.38;;;21.92;51.46
72038;BME280;59900;50.788;12.904;2023-06-19T05:25:24;97278.38;;;21.92;51.53
72038;BME280;59900;50.788;12.904;2023-06-19T05:27:49;97274.34;;;21.94;52.04
72038;BME280;59900;50.788;12.904;2023-06-19T05:30:14;97270.31;;;21.97;51.99
72038;BME280;59900;50.788;12.904;2023-06-19T05:32:40;97270.84;;;21.99;51.54
72038;BME280;59900;50.788;12.904;2023-06-19T05:35:05;97277.53;;;22.01;52.21
72038;BME280;59900;50.788;12.904;2023-06-19T05:37:31;97282.34;;;22.04;51.69
72038;BME280;59900;50.788;12.904;2023-06-19T05:39:56;97280.44;;;22.05;51.52
72038;BME280;59900;50.788;12.904;2023-06-19T05:42:22;97285.03;;;22.04;50.96
72038;BME280;59900;50.788;12.904;2023-06-19T05:44:47;97278.88;;;22.04;50.93
72038;BME280;59900;50.788;12.904;2023-06-19T05:47:12;97287.69;;;22.04;50.62
72038;BME280;59900;50.788;12.904;2023-06-19T05:49:37;97292.25;;;22.04;50.39
72038;BME280;59900;50.788;12.904;2023-06-19T05:52:06;97293.31;;;22.03;50.58
72038;BME280;59900;50.788;12.904;2023-06-19T05:54:31;97298.41;;;22.04;50.15
72038;BME280;59900;50.788;12.904;2023-06-19T05:56:57;97296.75;;;22.08;51.34
72038;BME280;59900;50.788;12.904;2023-06-19T05:59:22;97296.19;;;22.16;51.48
72038;BME280;59900;50.788;12.904;2023-06-19T06:01:47;97301.78;;;22.20;51.04
72038;BME280;59900;50.788;12.904;2023-06-19T06:04:12;97301.25;;;22.23;51.44
72038;BME280;59900;50.788;12.904;2023-06-19T06:06:38;97306.03;;;22.26;52.44
72038;BME280;59900;50.788;12.904;2023-06-19T06:09:04;97305.78;;;22.27;52.42
72038;BME280;59900;50.788;12.904;2023-06-19T06:11:29;97304.41;;;22.30;52.51
72038;BME280;59900;50.788;12.904;2023-06-19T06:13:54;97313.25;;;22.30;52.39
72038;BME280;59900;50.788;12.904;2023-06-19T06:16:20;97316.44;;;22.32;51.56
72038;BME280;59900;50.788;12.904;2023-06-19T06:18:45;97316.72;;;22.36;51.47
72038;BME280;59900;50.788;12.904;2023-06-19T06:21:10;97308.94;;;22.40;51.44
72038;BME280;59900;50.788;12.904;2023-06-19T06:23:38;97311.81;;;22.43;51.61
72038;BME280;59900;50.788;12.904;2023-06-19T06:26:03;97317.69;;;22.50;52.18
72038;BME280;59900;50.788;12.904;2023-06-19T06:28:28;97323.31;;;22.54;53.26
72038;BME280;59900;50.788;12.904;2023-06-19T06:30:54;97320.88;;;22.57;51.16
72038;BME280;59900;50.788;12.904;2023-06-19T06:33:20;97318.19;;;22.57;50.39
72038;BME280;59900;50.788;12.904;2023-06-19T06:35:45;97314.38;;;22.63;50.78
72038;BME280;59900;50.788;12.904;2023-06-19T06:38:10;97318.94;;;22.68;51.54
72038;BME280;59900;50.788;12.904;2023-06-19T06:40:36;97310.31;;;22.76;50.84
72038;BME280;59900;50.788;12.904;2023-06-19T06:43:01;97315.13;;;22.79;49.94
72038;BME280;59900;50.788;12.904;2023-06-19T06:45:26;97312.38;;;22.84;50.55
72038;BME280;59900;50.788;12.904;2023-06-19T06:47:52;97311.63;;;22.83;49.82
72038;BME280;59900;50.788;12.904;2023-06-19T06:50:17;97310.50;;;22.84;49.88
72038;BME280;59900;50.788;12.904;2023-06-19T06:52:42;97311.56;;;22.88;51.23
72038;BME280;59900;50.788;12.904;2023-06-19T06:55:07;97304.34;;;22.89;50.43
72038;BME280;59900;50.788;12.904;2023-06-19T06:57:33;97301.38;;;22.91;50.59
72038;BME280;59900;50.788;12.904;2023-06-19T06:59:58;97297.63;;;22.92;51.76
72038;BME280;59900;50.788;12.904;2023-06-19T07:02:23;97293.88;;;22.93;51.35
72038;BME280;59900;50.788;12.904;2023-06-19T07:04:49;97293.06;;;22.92;51.69
72038;BME280;59900;50.788;12.904;2023-06-19T07:07:14;97292.75;;;22.94;52.08
72038;BME280;59900;50.788;12.904;2023-06-19T07:09:40;97292.25;;;22.92;50.98
72038;BME280;59900;50.788;12.904;2023-06-19T07:12:05;97295.19;;;22.90;50.33
72038;BME280;59900;50.788;12.904;2023-06-19T07:14:32;97295.50;;;22.88;49.97
72038;BME280;59900;50.788;12.904;2023-06-19T07:16:57;97293.88;;;22.87;50.01
72038;BME280;59900;50.788;12.904;2023-06-19T07:19:22;97294.44;;;22.84;49.34
72038;BME280;59900;50.788;12.904;2023-06-19T07:21:50;97305.44;;;22.83;48.97
72038;BME280;59900;50.788;12.904;2023-06-19T07:24:15;97303.84;;;22.82;48.32
72038;BME280;59900;50.788;12.904;2023-06-19T07:26:41;97303.59;;;22.78;48.57
72038;BME280;59900;50.788;12.904;2023-06-19T07:29:06;97302.00;;;22.77;47.99
72038;BME280;59900;50.788;12.904;2023-06-19T07:31:31;97298.53;;;22.77;48.10
72038;BME280;59900;50.788;12.904;2023-06-19T07:33:56;97301.22;;;22.77;48.31
72038;BME280;59900;50.788;12.904;2023-06-19T07:36:22;97303.59;;;22.78;48.35
72038;BME280;59900;50.788;12.904;2023-06-19T07:38:47;97305.47;;;22.78;48.00
72038;BME280;59900;50.788;12.904;2023-06-19T07:41:12;97310.28;;;22.81;48.02
72038;BME280;59900;50.788;12.904;2023-06-19T07:43:38;97310.50;;;22.84;48.62
72038;BME280;59900;50.788;12.904;2023-06-19T07:46:03;97315.06;;;22.89;48.43
72038;BME280;59900;50.788;12.904;2023-06-19T07:48:29;97315.56;;;22.91;49.43
72038;BME280;59900;50.788;12.904;2023-06-19T07:50:54;97322.25;;;22.94;50.73
72038;BME280;59900;50.788;12.904;2023-06-19T07:53:19;97324.66;;;22.90;51.57
72038;BME280;59900;50.788;12.904;2023-06-19T07:55:45;97331.94;;;22.90;52.42
72038;BME280;59900;50.788;12.904;2023-06-19T07:58:10;97331.16;;;22.84;52.30
72038;BME280;59900;50.788;12.904;2023-06-19T08:00:36;97335.75;;;22.78;52.57
72038;BME280;59900;50.788;12.904;2023-06-19T08:03:01;97337.69;;;22.68;53.46
72038;BME280;59900;50.788;12.904;2023-06-19T08:05:26;97331.03;;;22.65;53.36
72038;BME280;59900;50.788;12.904;2023-06-19T08:07:52;97329.66;;;22.68;53.45
72038;BME280;59900;50.788;12.904;2023-06-19T08:10:17;97330.94;;;22.75;53.17
72038;BME280;59900;50.788;12.904;2023-06-19T08:12:43;97320.72;;;22.82;54.03
72038;BME280;59900;50.788;12.904;2023-06-19T08:15:12;97324.41;;;22.92;53.88
72038;BME280;59900;50.788;12.904;2023-06-19T08:17:41;97326.53;;;22.95;54.09
72038;BME280;59900;50.788;12.904;2023-06-19T08:20:07;97328.34;;;23.04;54.51
72038;BME280;59900;50.788;12.904;2023-06-19T08:22:33;97326.88;;;23.17;54.13
72038;BME280;59900;50.788;12.904;2023-06-19T08:24:59;97323.00;;;23.28;54.22
72038;BME280;59900;50.788;12.904;2023-06-19T08:27:24;97322.94;;;23.38;54.28
72038;BME280;59900;50.788;12.904;2023-06-19T08:29:49;97324.47;;;23.49;53.94
72038;BME280;59900;50.788;12.904;2023-06-19T08:32:16;97325.19;;;23.60;53.81
72038;BME280;59900;50.788;12.904;2023-06-19T08:34:41;97323.19;;;23.70;54.17
72038;BME280;59900;50.788;12.904;2023-06-19T08:37:07;97328.72;;;23.79;53.59
72038;BME280;59900;50.788;12.904;2023-06-19T08:39:32;97326.75;;;23.89;53.30
72038;BME280;59900;50.788;12.904;2023-06-19T08:41:57;97318.31;;;23.96;53.07
72038;BME280;59900;50.788;12.904;2023-06-19T08:44:23;97316.59;;;24.05;53.81
72038;BME280;59900;50.788;12.904;2023-06-19T08:46:48;97318.41;;;24.15;52.66
72038;BME280;59900;50.788;12.904;2023-06-19T08:49:13;97323.91;;;24.23;52.93
72038;BME280;59900;50.788;12.904;2023-06-19T08:51:40;97319.00;;;24.30;52.02
72038;BME280;59900;50.788;12.904;2023-06-19T08:54:06;97323.16;;;24.41;50.94
72038;BME280;59900;50.788;12.904;2023-06-19T08:56:33;97338.97;;;24.43;50.43
72038;BME280;59900;50.788;12.904;2023-06-19T08:59:16;97329.84;;;24.63;50.30
72038;BME280;59900;50.788;12.904;2023-06-19T09:01:52;97336.94;;;24.72;49.05
72038;BME280;59900;50.788;12.904;2023-06-19T09:04:25;97335.56;;;24.75;49.50
72038;BME280;59900;50.788;12.904;2023-06-19T09:06:57;97330.25;;;24.70;49.58
72038;BME280;59900;50.788;12.904;2023-06-19T09:09:24;97340.75;;;24.71;49.46
72038;BME280;59900;50.788;12.904;2023-06-19T09:12:08;97347.78;;;24.67;48.18
72038;BME280;59900;50.788;12.904;2023-06-19T09:14:45;97338.69;;;24.63;47.89
72038;BME280;59900;50.788;12.904;2023-06-19T09:17:12;97352.50;;;24.57;49.06
72038;BME280;59900;50.788;12.904;2023-06-19T09:19:38;97338.63;;;24.49;49.10
72038;BME280;59900;50.788;12.904;2023-06-19T09:22:11;97345.38;;;24.47;50.22
72038;BME280;59900;50.788;12.904;2023-06-19T09:24:39;97337.22;;;24.52;50.94
72038;BME280;59900;50.788;12.904;2023-06-19T09:27:18;97338.19;;;24.61;50.86
72038;BME280;59900;50.788;12.904;2023-06-19T09:29:46;97333.25;;;24.68;50.03
72038;BME280;59900;50.788;12.904;2023-06-19T09:32:20;97335.50;;;24.80;50.01
72038;BME280;59900;50.788;12.904;2023-06-19T09:34:47;97333.91;;;24.79;49.12
72038;BME280;59900;50.788;12.904;2023-06-19T09:37:13;97329.00;;;24.86;48.65
72038;BME280;59900;50.788;12.904;2023-06-19T09:39:39;97322.44;;;24.92;48.12
72038;BME280;59900;50.788;12.904;2023-06-19T09:42:08;97324.38;;;25.05;48.49
72038;BME280;59900;50.788;12.904;2023-06-19T09:44:41;97326.38;;;25.13;46.50
72038;BME280;59900;50.788;12.904;2023-06-19T09:47:22;97323.31;;;25.20;46.28
72038;BME280;59900;50.788;12.904;2023-06-19T09:49:50;97321.94;;;25.22;46.32
72038;BME280;59900;50.788;12.904;2023-06-19T09:52:18;97327.44;;;25.31;45.17
72038;BME280;59900;50.788;12.904;2023-06-19T09:54:46;97326.69;;;25.44;46.21
72038;BME280;59900;50.788;12.904;2023-06-19T09:57:11;97334.31;;;25.55;46.85
72038;BME280;59900;50.788;12.904;2023-06-19T09:59:39;97333.63;;;25.63;45.80
72038;BME280;59900;50.788;12.904;2023-06-19T10:02:05;97329.13;;;25.73;45.32
72038;BME280;59900;50.788;12.904;2023-06-19T10:04:41;97326.16;;;25.88;45.30
72038;BME280;59900;50.788;12.904;2023-06-19T10:07:15;97316.97;;;26.02;45.44
72038;BME280;59900;50.788;12.904;2023-06-19T10:09:42;97313.53;;;26.15;44.89
72038;BME280;59900;50.788;12.904;2023-06-19T10:12:13;97307.22;;;26.20;43.60
72038;BME280;59900;50.788;12.904;2023-06-19T10:14:46;97301.72;;;26.25;43.51
72038;BME280;59900;50.788;12.904;2023-06-19T10:17:12;97312.59;;;26.34;45.08
72038;BME280;59900;50.788;12.904;2023-06-19T10:19:37;97305.56;;;26.46;44.44
72038;BME280;59900;50.788;12.904;2023-06-19T10:22:03;97305.97;;;26.53;44.12
72038;BME280;59900;50.788;12.904;2023-06-19T10:24:28;97304.56;;;26.56;43.96
72038;BME280;59900;50.788;12.904;2023-06-19T10:27:01;97300.56;;;26.53;43.67
72038;BME280;59900;50.788;12.904;2023-06-19T10:29:37;97300.47;;;26.58;44.28
72038;BME280;59900;50.788;12.904;2023-06-19T10:32:03;97294.94;;;26.63;42.92
72038;BME280;59900;50.788;12.904;2023-06-19T10:34:35;97297.41;;;26.73;42.34
72038;BME280;59900;50.788;12.904;2023-06-19T10:37:00;97299.72;;;26.80;42.32
72038;BME280;59900;50.788;12.904;2023-06-19T10:39:25;97295.28;;;26.84;42.67
72038;BME280;59900;50.788;12.904;2023-06-19T10:41:50;97297.50;;;27.04;42.55
72038;BME280;59900;50.788;12.904;2023-06-19T10:44:16;97297.13;;;27.19;42.67
72038;BME280;59900;50.788;12.904;2023-06-19T10:46:41;97293.56;;;27.33;42.77
72038;BME280;59900;50.788;12.904;2023-06-19T10:49:08;97293.16;;;27.48;43.53
72038;BME280;59900;50.788;12.904;2023-06-19T10:51:39;97301.19;;;27.61;43.63
72038;BME280;59900;50.788;12.904;2023-06-19T10:54:05;97292.28;;;27.61;41.33
72038;BME280;59900;50.788;12.904;2023-06-19T10:56:31;97287.47;;;27.49;40.44
72038;BME280;59900;50.788;12.904;2023-06-19T10:59:06;97286.13;;;27.38;39.13
72038;BME280;59900;50.788;12.904;2023-06-19T11:01:38;97294.78;;;27.26;39.26
72038;BME280;59900;50.788;12.904;2023-06-19T11:04:09;97301.19;;;27.08;38.91
72038;BME280;59900;50.788;12.904;2023-06-19T11:06:35;97289.72;;;27.03;39.55
72038;BME280;59900;50.788;12.904;2023-06-19T11:09:01;97289.31;;;27.09;39.90
72038;BME280;59900;50.788;12.904;2023-06-19T11:11:38;97292.66;;;27.15;39.84
72038;BME280;59900;50.788;12.904;2023-06-19T11:14:04;97288.84;;;27.16;39.66
72038;BME280;59900;50.788;12.904;2023-06-19T11:16:30;97285.19;;;27.12;39.75
72038;BME280;59900;50.788;12.904;2023-06-19T11:18:56;97293.38;;;27.07;40.10
72038;BME280;59900;50.788;12.904;2023-06-19T11:21:29;97292.91;;;27.05;39.96
72038;BME280;59900;50.788;12.904;2023-06-19T11:23:57;97305.16;;;27.11;40.54
72038;BME280;59900;50.788;12.904;2023-06-19T11:26:24;97296.09;;;27.07;40.70
72038;BME280;59900;50.788;12.904;2023-06-19T11:28:50;97297.56;;;27.13;40.48
72038;BME280;59900;50.788;12.904;2023-06-19T11:31:15;97302.09;;;27.26;40.91
72038;BME280;59900;50.788;12.904;2023-06-19T11:33:40;97302.00;;;27.40;40.68
72038;BME280;59900;50.788;12.904;2023-06-19T11:36:05;97297.34;;;27.54;40.79
72038;BME280;59900;50.788;12.904;2023-06-19T11:38:31;97298.56;;;27.48;39.85
72038;BME280;59900;50.788;12.904;2023-06-19T11:40:58;97306.56;;;27.31;39.71
72038;BME280;59900;50.788;12.904;2023-06-19T11:43:24;97303.47;;;27.15;40.47
72038;BME280;59900;50.788;12.904;2023-06-19T11:45:50;97304.31;;;27.02;41.00
72038;BME280;59900;50.788;12.904;2023-06-19T11:48:26;97309.84;;;26.97;40.54
72038;BME280;59900;50.788;12.904;2023-06-19T11:50:52;97299.34;;;26.95;41.21
72038;BME280;59900;50.788;12.904;2023-06-19T11:53:19;97307.38;;;26.87;40.67
72038;BME280;59900;50.788;12.904;2023-06-19T11:55:45;97296.72;;;26.82;40.36
72038;BME280;59900;50.788;12.904;2023-06-19T11:58:10;97304.91;;;26.77;40.98
72038;BME280;59900;50.788;12.904;2023-06-19T12:00:38;97298.03;;;26.70;41.00
72038;BME280;59900;50.788;12.904;2023-06-19T12:03:04;97295.63;;;26.69;41.54
72038;BME280;59900;50.788;12.904;2023-06-19T12:05:29;97306.72;;;26.67;41.51
72038;BME280;59900;50.788;12.904;2023-06-19T12:07:55;97299.72;;;26.66;41.78
72038;BME280;59900;50.788;12.904;2023-06-19T12:10:21;97305.53;;;26.60;41.59
72038;BME280;59900;50.788;12.904;2023-06-19T12:12:46;97306.94;;;26.57;41.58
72038;BME280;59900;50.788;12.904;2023-06-19T12:15:11;97308.53;;;26.58;41.50
72038;BME280;59900;50.788;12.904;2023-06-19T12:17:37;97311.13;;;26.63;42.11
72038;BME280;59900;50.788;12.904;2023-06-19T12:20:02;97314.22;;;26.57;41.08
72038;BME280;59900;50.788;12.904;2023-06-19T12:22:31;97304.97;;;26.49;41.39
72038;BME280;59900;50.788;12.904;2023-06-19T12:24:56;97312.84;;;26.46;42.00
72038;BME280;59900;50.788;12.904;2023-06-19T12:27:22;97301.13;;;26.42;41.94
72038;BME280;59900;50.788;12.904;2023-06-19T12:29:47;97302.81;;;26.38;41.92
72038;BME280;59900;50.788;12.904;2023-06-19T12:32:12;97313.25;;;26.39;42.31
72038;BME280;59900;50.788;12.904;2023-06-19T12:34:37;97317.69;;;26.35;42.99
72038;BME280;59900;50.788;12.904;2023-06-19T12:37:03;97319.66;;;26.43;42.40
72038;BME280;59900;50.788;12.904;2023-06-19T12:39:28;97320.63;;;26.61;42.05
72038;BME280;59900;50.788;12.904;2023-06-19T12:41:53;97316.69;;;26.81;41.92
72038;BME280;59900;50.788;12.904;2023-06-19T12:44:21;97315.97;;;27.11;41.08
72038;BME280;59900;50.788;12.904;2023-06-19T12:46:46;97307.13;;;27.19;40.54